Time;durP1;ratioP1;P1;durP2;ratioP2;P2;SDS_P1;SDS_P2;PMS_P1;PMS_P2;Temp;Humidity;BMP_temperature;BMP_pressure;BME280_temperature;BME280_humidity;BME280_pressure;Samples;Min_cycle;Max_cycle;Signal;HPM_P1;HPM_P2
2022/08/11 00:05:01;;;;;;;4.55;2.60;;;;;;;;;;10246571;28;20501;-75
2022/08/11 00:10:11;;;;;;;6.10;2.72;;;;;;;;;;10242440;29;20047;-74
2022/08/11 00:15:18;;;;;;;3.08;2.33;;;;;;;;;;10246392;29;20115;-75
2022/08/11 00:20:34;;;;;;;8.00;3.10;;;;;;;;;;10269699;28;20098;-74
2022/08/11 00:25:41;;;;;;;5.35;3.20;;;;;;;;;;10242645;29;20085;-74
2022/08/11 00:30:47;;;;;;;5.03;2.72;;;;;;;;;;10231527;28;20214;-74
2022/08/11 00:36:04;;;;;;;7.28;3.25;;;;;;;;;;10247437;29;20051;-74
2022/08/11 00:41:18;;;;;;;4.72;2.95;;;;;;;;;;10243838;29;20027;-73
2022/08/11 00:46:31;;;;;;;5.22;3.10;;;;;;;;;;10236191;28;20071;-75
2022/08/11 00:51:43;;;;;;;5.65;3.05;;;;;;;;;;10244064;28;20036;-74
2022/08/11 00:57:18;;;;;;;3.90;2.92;;;;;;;;;;10248667;29;20045;-74
2022/08/11 01:02:53;;;;;;;5.13;2.75;;;;;;;;;;10242138;28;20038;-75
2022/08/11 01:08:14;;;;;;;4.85;2.88;;;;;;;;;;10244819;28;20050;-75
2022/08/11 01:13:52;;;;;;;7.00;3.08;;;;;;;;;;10223491;28;20094;-74
2022/08/11 01:19:26;;;;;;;7.53;3.20;;;;;;;;;;10241882;28;20389;-75
2022/08/11 01:25:21;;;;;;;4.18;3.00;;;;;;;;;;10259603;28;20061;-75
2022/08/11 01:31:01;;;;;;;5.82;3.30;;;;;;;;;;10265104;28;20038;-75
2022/08/11 01:36:28;;;;;;;3.95;2.90;;;;;;;;;;10145937;28;20113;-74
2022/08/11 01:47:49;;;;;;;6.38;3.22;;;;;;;;;;10245063;28;20536;-74
2022/08/11 01:53:18;;;;;;;9.10;3.35;;;;;;;;;;10258809;28;20043;-75
2022/08/11 01:58:28;;;;;;;6.85;2.90;;;;;;;;;;10258185;28;20406;-75
2022/08/11 02:03:54;;;;;;;9.63;3.67;;;;;;;;;;10257113;28;20047;-75
2022/08/11 02:09:06;;;;;;;6.35;3.35;;;;;;;;;;10227420;29;20055;-75
2022/08/11 02:14:27;;;;;;;7.03;3.25;;;;;;;;;;10252170;28;20061;-74
2022/08/11 02:25:09;;;;;;;7.03;3.60;;;;;;;;;;10240396;28;20059;-74
2022/08/11 02:30:32;;;;;;;7.65;3.05;;;;;;;;;;10248021;28;20176;-74
2022/08/11 02:35:46;;;;;;;5.22;3.17;;;;;;;;;;10247849;28;20562;-74
2022/08/11 02:42:21;;;;;;;6.55;3.58;;;;;;;;;;10245088;29;20484;-75
2022/08/11 02:46:33;;;;;;;5.20;3.53;;;;;;;;;;10265028;28;20252;-75
2022/08/11 02:51:52;;;;;;;5.47;3.13;;;;;;;;;;10246103;28;20067;-75
2022/08/11 02:57:03;;;;;;;5.00;3.30;;;;;;;;;;10261975;29;20049;-75
2022/08/11 03:02:17;;;;;;;6.68;3.80;;;;;;;;;;9941586;29;8873097;-76
2022/08/11 03:07:27;;;;;;;5.65;3.55;;;;;;;;;;10264913;28;20039;-76
2022/08/11 03:18:13;;;;;;;6.40;3.72;;;;;;;;;;10267440;29;20045;-75
2022/08/11 03:23:25;;;;;;;4.70;3.08;;;;;;;;;;10250640;29;20043;-75
2022/08/11 03:50:48;;;;;;;6.30;3.70;;;;;;;;;;10270564;28;20428;-75
2022/08/11 03:55:57;;;;;;;;;;;;;;;;;;10249402;29;20102;-74
2022/08/11 04:01:38;;;;;;;6.35;3.95;;;;;;;;;;10232437;29;20384;-73
2022/08/11 04:07:09;;;;;;;4.85;3.40;;;;;;;;;;10249954;29;20047;-74
2022/08/11 04:12:30;;;;;;;5.63;3.60;;;;;;;;;;10248612;28;20042;-74
2022/08/11 04:18:13;;;;;;;6.65;3.33;;;;;;;;;;10244946;29;20122;-75
2022/08/11 04:29:16;;;;;;;6.68;3.72;;;;;;;;;;10245993;29;20062;-74
2022/08/11 04:34:45;;;;;;;11.82;4.25;;;;;;;;;;10234470;28;20065;-75
2022/08/11 04:40:02;;;;;;;6.65;4.15;;;;;;;;;;10227962;29;20039;-75
2022/08/11 04:45:41;;;;;;;7.53;3.78;;;;;;;;;;10255633;28;20043;-73
2022/08/11 05:02:04;;;;;;;7.75;4.72;;;;;;;;;;10241837;29;20038;-74
2022/08/11 05:07:44;;;;;;;8.88;4.30;;;;;;;;;;10269469;28;20112;-74
2022/08/11 05:12:55;;;;;;;6.75;4.40;;;;;;;;;;10256756;28;20044;-73
2022/08/11 05:56:35;;;;;;;8.32;4.50;;;;;;;;;;10239725;29;20047;-75
2022/08/11 06:01:46;;;;;;;6.68;3.65;;;;;;;;;;10259524;28;20412;-74
2022/08/11 06:07:01;;;;;;;9.15;4.25;;;;;;;;;;10266242;29;20544;-74
2022/08/11 06:12:07;;;;;;;6.93;3.92;;;;;;;;;;10265486;28;20099;-74
2022/08/11 06:17:31;;;;;;;8.68;4.00;;;;;;;;;;10241383;28;20419;-74
2022/08/11 06:22:49;;;;;;;10.07;4.22;;;;;;;;;;10246564;28;20081;-74
2022/08/11 06:27:56;;;;;;;8.98;3.95;;;;;;;;;;10249142;28;20106;-74
2022/08/11 06:33:06;;;;;;;7.22;3.55;;;;;;;;;;10233166;29;20063;-74
2022/08/11 06:38:20;;;;;;;8.43;4.13;;;;;;;;;;10247306;28;20038;-74
2022/08/11 06:43:26;;;;;;;8.95;4.43;;;;;;;;;;10264737;28;20082;-74
2022/08/11 06:48:46;;;;;;;7.03;4.03;;;;;;;;;;10245770;29;20053;-74
2022/08/11 06:53:53;;;;;;;7.97;4.05;;;;;;;;;;10249523;28;20043;-75
2022/08/11 07:04:36;;;;;;;5.65;3.80;;;;;;;;;;10246105;29;20050;-74
2022/08/11 07:32:38;;;;;;;9.70;5.68;;;;;;;;;;10244559;28;20232;-75
2022/08/11 07:37:47;;;;;;;6.80;3.50;;;;;;;;;;10227224;29;20055;-75
2022/08/11 07:43:05;;;;;;;7.72;3.55;;;;;;;;;;10243009;28;20043;-75
2022/08/11 07:53:46;;;;;;;6.35;3.72;;;;;;;;;;10245448;29;20058;-74
2022/08/11 08:21:14;;;;;;;3.85;3.33;;;;;;;;;;10238652;29;20084;-73
2022/08/11 08:31:45;;;;;;;7.15;3.47;;;;;;;;;;10258491;28;20040;-74
2022/08/11 08:37:02;;;;;;;4.82;3.60;;;;;;;;;;10258979;28;20074;-73
2022/08/11 08:42:30;;;;;;;4.72;3.30;;;;;;;;;;10239961;29;20122;-74
2022/08/11 08:47:36;;;;;;;6.32;3.78;;;;;;;;;;10238066;29;20102;-74
2022/08/11 08:52:53;;;;;;;7.28;3.45;;;;;;;;;;10241218;29;20154;-74
2022/08/11 08:58:00;;;;;;;5.50;3.88;;;;;;;;;;10240567;29;20107;-75
2022/08/11 09:03:04;;;;;;;6.63;3.83;;;;;;;;;;10256146;29;20058;-74
2022/08/11 09:08:31;;;;;;;4.93;3.45;;;;;;;;;;10258693;29;20055;-75
2022/08/11 09:13:43;;;;;;;5.63;4.00;;;;;;;;;;10238030;29;20063;-74
2022/08/11 09:19:09;;;;;;;4.75;3.50;;;;;;;;;;10241166;29;20047;-74
2022/08/11 09:29:38;;;;;;;7.68;3.78;;;;;;;;;;10240963;29;20047;-73
2022/08/11 09:34:46;;;;;;;5.75;3.97;;;;;;;;;;10256313;28;20047;-74
2022/08/11 09:45:18;;;;;;;5.18;3.60;;;;;;;;;;10236236;28;20009;-75
2022/08/11 09:50:24;;;;;;;4.10;3.60;;;;;;;;;;10255314;29;20046;-74
2022/08/11 09:55:29;;;;;;;5.32;3.20;;;;;;;;;;10236612;29;20031;-74
2022/08/11 10:00:39;;;;;;;4.18;3.10;;;;;;;;;;10257267;29;20047;-75
2022/08/11 10:11:20;;;;;;;7.75;3.20;;;;;;;;;;10240865;29;20429;-75
2022/08/11 10:16:31;;;;;;;3.90;3.40;;;;;;;;;;10238013;29;20073;-74
2022/08/11 10:21:37;;;;;;;3.97;3.33;;;;;;;;;;10237910;29;20098;-75
2022/08/11 10:26:53;;;;;;;4.38;3.03;;;;;;;;;;10238664;29;20043;-74
2022/08/11 11:05:08;;;;;;;8.70;3.13;;;;;;;;;;10260352;29;20059;-75
2022/08/11 11:21:08;;;;;;;4.45;3.10;;;;;;;;;;10615472;28;20047;-75
2022/08/11 11:26:22;;;;;;;3.67;2.92;;;;;;;;;;10617057;28;20036;-75
2022/08/11 11:31:35;;;;;;;3.25;2.90;;;;;;;;;;10613168;28;20070;-75
2022/08/11 11:36:44;;;;;;;3.10;2.80;;;;;;;;;;10611342;28;20043;-75
2022/08/11 11:41:48;;;;;;;3.40;2.63;;;;;;;;;;10612587;28;20053;-74
2022/08/11 11:46:52;;;;;;;4.95;2.80;;;;;;;;;;10608452;28;20042;-74
2022/08/11 11:51:56;;;;;;;4.38;2.95;;;;;;;;;;10607807;28;20040;-74
2022/08/11 12:01:14;;;;;;;3.47;2.70;;;;;;;;;;10616228;28;20116;-75
2022/08/11 12:02:27;;;;;;;5.72;3.00;;;;;;;;;;10616262;27;20057;-74
2022/08/11 12:18:34;;;;;;;3.05;2.60;;;;;;;;;;10608842;28;20059;-74
2022/08/11 12:29:06;;;;;;;4.78;2.50;;;;;;;;;;10583808;28;20134;-74
2022/08/11 12:34:10;;;;;;;3.60;2.58;;;;;;;;;;10584772;28;20043;-74
2022/08/11 12:39:18;;;;;;;3.88;2.65;;;;;;;;;;10583360;28;20062;-74
2022/08/11 13:06:28;;;;;;;2.95;2.60;;;;;;;;;;10580913;28;20130;-76
2022/08/11 13:22:23;;;;;;;7.00;2.28;;;;;;;;;;10579536;28;21329;-75
2022/08/11 13:27:27;;;;;;;4.90;2.40;;;;;;;;;;10575936;28;20040;-75
2022/08/11 13:32:30;;;;;;;3.47;2.20;;;;;;;;;;10584233;28;20024;-74
2022/08/11 13:37:35;;;;;;;3.03;2.30;;;;;;;;;;10582709;28;20054;-74
2022/08/11 13:42:58;;;;;;;2.22;1.95;;;;;;;;;;10581206;28;20468;-74
2022/08/11 13:48:03;;;;;;;3.70;2.40;;;;;;;;;;10579710;28;20461;-74
2022/08/11 13:53:08;;;;;;;5.43;2.05;;;;;;;;;;10584571;28;20126;-74
2022/08/11 13:58:14;;;;;;;7.32;2.38;;;;;;;;;;10584762;28;20059;-74
2022/08/11 14:03:40;;;;;;;2.20;2.00;;;;;;;;;;10577818;28;20101;-74
2022/08/11 14:09:07;;;;;;;3.97;2.30;;;;;;;;;;10575392;28;20039;-74
2022/08/11 14:14:13;;;;;;;3.40;2.00;;;;;;;;;;10580330;28;20043;-76
2022/08/11 14:19:17;;;;;;;7.22;2.33;;;;;;;;;;10583642;28;20047;-75
2022/08/11 14:24:21;;;;;;;4.22;2.17;;;;;;;;;;10579595;28;20042;-74
2022/08/11 14:29:27;;;;;;;4.22;2.10;;;;;;;;;;10571749;28;20584;-74
2022/08/11 14:34:33;;;;;;;3.42;2.10;;;;;;;;;;10580822;28;20198;-74
2022/08/11 14:39:42;;;;;;;4.00;2.13;;;;;;;;;;10582380;28;20047;-75
2022/08/11 14:50:12;;;;;;;4.85;2.10;;;;;;;;;;10568239;28;20043;-75
2022/08/11 15:00:41;;;;;;;3.30;2.05;;;;;;;;;;10577727;28;20610;-75
2022/08/11 15:05:48;;;;;;;5.00;2.05;;;;;;;;;;10585415;28;20027;-75
2022/08/11 15:12:07;;;;;;;4.65;2.25;;;;;;;;;;10576773;28;20600;-75
2022/08/11 15:38:04;;;;;;;2.60;2.13;;;;;;;;;;10583851;28;20047;-74
2022/08/11 15:48:39;;;;;;;2.92;1.80;;;;;;;;;;10583754;28;20112;-74
2022/08/11 15:53:45;;;;;;;3.03;2.10;;;;;;;;;;10584558;28;20063;-74
2022/08/11 16:04:44;;;;;;;2.65;1.90;;;;;;;;;;10589802;28;20135;-74
2022/08/11 16:09:48;;;;;;;3.47;2.20;;;;;;;;;;10586668;28;20133;-75
2022/08/11 16:20:24;;;;;;;2.97;2.10;;;;;;;;;;10588397;28;20070;-74
2022/08/11 16:25:28;;;;;;;3.45;2.10;;;;;;;;;;10591881;28;20391;-74
2022/08/11 16:30:54;;;;;;;3.17;1.88;;;;;;;;;;10589546;28;20113;-74
2022/08/11 16:46:58;;;;;;;2.22;1.85;;;;;;;;;;10593367;28;20119;-74
2022/08/11 16:47:00;;;;;;;3.40;2.08;;;;;;;;;;10585442;27;20071;-74
2022/08/11 16:52:04;;;;;;;3.53;2.05;;;;;;;;;;10586954;28;20568;-74
2022/08/11 17:13:29;;;;;;;4.00;2.40;;;;;;;;;;10537963;28;20046;-73
2022/08/11 17:18:42;;;;;;;4.50;2.08;;;;;;;;;;10582363;28;20039;-74
2022/08/11 17:23:48;;;;;;;3.42;2.17;;;;;;;;;;10578754;28;20092;-74
2022/08/11 17:28:56;;;;;;;3.90;1.95;;;;;;;;;;10584855;27;20329;-74
2022/08/11 17:39:27;;;;;;;2.60;1.95;;;;;;;;;;10581013;28;20047;-74
2022/08/11 17:49:54;;;;;;;4.75;1.80;;;;;;;;;;10580733;28;20222;-74
2022/08/11 18:00:51;;;;;;;3.40;1.88;;;;;;;;;;10586224;28;21486;-75
2022/08/11 18:05:55;;;;;;;2.67;1.90;;;;;;;;;;10586326;28;20052;-74
